シドニー の空港の天気 - METARとTAF

シドニー国際空港 ( YSSY / SYD ) - オーストラリア ニューサウスウェールズ州、Mascot
飛行場実況気象(Metar)
観測時間08/16 16:30 AEST (08/16 06:30 UTC)
風向・風速西南西 9m/s
視程10km以上
天気現象
なし
気温18℃
湿度24%
気圧1010hPa
METARYSSY 160630Z 24018KT CAVOK 18/M03 Q1010 NOSIG
過去の天気等 Google飛行場航空写真 Wunderground天気予報

過去48時間のMETAR

飛行場予報(TAF)
発表時間: 8/16 15:23 AEST (8/16 05:23 UTC)
予報対象時間: 16日16時 AEST ~ 17日22時 AEST
風向・風速西南西 9m/s
視程10km以上
なし
16日18時 AEST から
風向・風速西南西 5m/s
視程10km以上
なし
16日20時 AEST から
風向・風速西北西 4m/s
視程10km以上
なし
17日10時 AEST から
風向・風速西 6m/s
視程10km以上
なし
TAF YSSY 160523Z 1606/1712 24018KT CAVOK
FM160800 25010KT CAVOK
FM161000 29008KT CAVOK
FM170000 26012KT CAVOK